sensor_id;sensor_type;location;lat;lon;timestamp;pressure;altitude;pressure_sealevel;temperature;humidity
80911;BME280;70359;51.420;7.032;2023-07-31T00:02:07;996.3233;;;18.13;70.16895
80911;BME280;70359;51.420;7.032;2023-07-31T00:04:32;996.3411;;;18.09;70.56348
80911;BME280;70359;51.420;7.032;2023-07-31T00:06:57;996.2825;;;18.13;70.01953
80911;BME280;70359;51.420;7.032;2023-07-31T00:09:22;996.2876;;;18.18;69.96973
80911;BME280;70359;51.420;7.032;2023-07-31T00:11:47;996.3005;;;18.22;69.75879
80911;BME280;70359;51.420;7.032;2023-07-31T00:14:12;996.3091;;;18.12;69.92578
80911;BME280;70359;51.420;7.032;2023-07-31T00:16:37;996.3033;;;18.17;69.92188
80911;BME280;70359;51.420;7.032;2023-07-31T00:19:02;996.2242;;;18.11;70.18945
80911;BME280;70359;51.420;7.032;2023-07-31T00:21:27;996.2865;;;18.18;69.82227
80911;BME280;70359;51.420;7.032;2023-07-31T00:23:52;996.3308;;;18.11;70.15527
80911;BME280;70359;51.420;7.032;2023-07-31T00:26:17;996.2968;;;18.2;69.77832
80911;BME280;70359;51.420;7.032;2023-07-31T00:28:42;996.2429;;;18.13;70.22656
80911;BME280;70359;51.420;7.032;2023-07-31T00:31:07;996.2745;;;18.15;70.17188
80911;BME280;70359;51.420;7.032;2023-07-31T00:33:34;996.252;;;18.12;70.14453
80911;BME280;70359;51.420;7.032;2023-07-31T00:35:57;996.2144;;;18.17;69.72852
80911;BME280;70359;51.420;7.032;2023-07-31T00:38:22;996.2385;;;18.14;70.00879
80911;BME280;70359;51.420;7.032;2023-07-31T00:40:47;996.1785;;;18.16;69.9209
80911;BME280;70359;51.420;7.032;2023-07-31T00:43:12;996.2288;;;18.12;70.18945
80911;BME280;70359;51.420;7.032;2023-07-31T00:45:37;996.219;;;18.14;69.80176
80911;BME280;70359;51.420;7.032;2023-07-31T00:48:02;996.215;;;18.09;70.15039
80911;BME280;70359;51.420;7.032;2023-07-31T00:50:27;996.2075;;;18.16;69.93262
80911;BME280;70359;51.420;7.032;2023-07-31T00:52:52;996.2762;;;18.11;70.05176
80911;BME280;70359;51.420;7.032;2023-07-31T00:55:17;996.2222;;;18.11;69.92383
80911;BME280;70359;51.420;7.032;2023-07-31T00:57:42;996.2106;;;18.08;69.89844
80911;BME280;70359;51.420;7.032;2023-07-31T01:00:08;996.1912;;;18.07;70.09082
80911;BME280;70359;51.420;7.032;2023-07-31T01:02:32;996.2082;;;18.06;69.99707
80911;BME280;70359;51.420;7.032;2023-07-31T01:04:57;996.2667;;;18.12;69.82227
80911;BME280;70359;51.420;7.032;2023-07-31T01:07:24;996.2681;;;18.06;69.99707
80911;BME280;70359;51.420;7.032;2023-07-31T01:09:51;996.2537;;;18.11;69.89063
80911;BME280;70359;51.420;7.032;2023-07-31T01:12:13;996.209;;;18.08;69.86426
80911;BME280;70359;51.420;7.032;2023-07-31T01:14:37;996.1718;;;18.07;69.83789
80911;BME280;70359;51.420;7.032;2023-07-31T01:17:02;996.2086;;;18.11;69.77637
80911;BME280;70359;51.420;7.032;2023-07-31T01:19:27;996.1329;;;18.06;69.93945
80911;BME280;70359;51.420;7.032;2023-07-31T01:21:57;996.1509;;;18.12;69.73145
80911;BME280;70359;51.420;7.032;2023-07-31T01:24:27;996.1166;;;18.12;69.63867
80911;BME280;70359;51.420;7.032;2023-07-31T01:26:43;996.1864;;;18.19;69.35156
80911;BME280;70359;51.420;7.032;2023-07-31T01:29:08;996.2289;;;18.13;69.6416
80911;BME280;70359;51.420;7.032;2023-07-31T01:31:32;996.2758;;;18.18;69.45313
80911;BME280;70359;51.420;7.032;2023-07-31T01:33:58;996.2424;;;18.13;69.76758
80911;BME280;70359;51.420;7.032;2023-07-31T01:36:22;996.1036;;;18.09;69.51953
80911;BME280;70359;51.420;7.032;2023-07-31T01:38:47;996.1973;;;18.08;69.85254
80911;BME280;70359;51.420;7.032;2023-07-31T01:41:12;996.1777;;;18.13;69.36621
80911;BME280;70359;51.420;7.032;2023-07-31T01:43:37;996.1442;;;18.1;69.54395
80911;BME280;70359;51.420;7.032;2023-07-31T01:46:02;996.134;;;18.15;69.35742
80911;BME280;70359;51.420;7.032;2023-07-31T01:48:27;996.106;;;18.07;69.6084
80911;BME280;70359;51.420;7.032;2023-07-31T01:50:52;996.0631;;;18.11;69.25781
80911;BME280;70359;51.420;7.032;2023-07-31T01:53:17;996.0608;;;18.07;69.50488
80911;BME280;70359;51.420;7.032;2023-07-31T01:55:42;996.0225;;;18.15;68.93262
80911;BME280;70359;51.420;7.032;2023-07-31T01:58:07;996.01;;;18.16;68.60059
80911;BME280;70359;51.420;7.032;2023-07-31T02:00:32;996.0031;;;18.17;68.83008
80911;BME280;70359;51.420;7.032;2023-07-31T02:02:58;995.9619;;;18.13;68.6084
80911;BME280;70359;51.420;7.032;2023-07-31T02:05:22;995.976;;;18.16;68.6582
80911;BME280;70359;51.420;7.032;2023-07-31T02:07:47;996.0359;;;18.09;68.77344
80911;BME280;70359;51.420;7.032;2023-07-31T02:10:12;995.9992;;;18.12;68.95117
80911;BME280;70359;51.420;7.032;2023-07-31T02:12:37;995.95;;;18.1;69.03906
80911;BME280;70359;51.420;7.032;2023-07-31T02:15:03;995.897;;;18.14;68.87207
80911;BME280;70359;51.420;7.032;2023-07-31T02:17:27;995.8474;;;18.14;68.34375
80911;BME280;70359;51.420;7.032;2023-07-31T02:19:53;995.8616;;;18.16;68.17578
80911;BME280;70359;51.420;7.032;2023-07-31T02:22:17;995.7919;;;18.12;68.24902
80911;BME280;70359;51.420;7.032;2023-07-31T02:24:42;995.8376;;;18.11;68.15723
80911;BME280;70359;51.420;7.032;2023-07-31T02:27:08;995.8502;;;18.14;68.02246
80911;BME280;70359;51.420;7.032;2023-07-31T02:29:32;995.9102;;;18.12;68.12305
80911;BME280;70359;51.420;7.032;2023-07-31T02:31:57;995.8679;;;18.15;67.91016
80911;BME280;70359;51.420;7.032;2023-07-31T02:34:22;995.8588;;;18.09;68.07324
80911;BME280;70359;51.420;7.032;2023-07-31T02:36:47;995.9;;;18.08;67.91211
80911;BME280;70359;51.420;7.032;2023-07-31T02:39:12;995.8758;;;18.07;68.46094
80911;BME280;70359;51.420;7.032;2023-07-31T02:41:37;995.8063;;;18.12;68.02051
80911;BME280;70359;51.420;7.032;2023-07-31T02:44:03;995.8072;;;18.07;68.11621
80911;BME280;70359;51.420;7.032;2023-07-31T02:46:28;995.7808;;;18.1;67.77734
80911;BME280;70359;51.420;7.032;2023-07-31T02:48:53;995.7397;;;18.03;68.13184
80911;BME280;70359;51.420;7.032;2023-07-31T02:51:17;995.677;;;18.1;67.83398
80911;BME280;70359;51.420;7.032;2023-07-31T02:53:43;995.6816;;;18.06;68.0918
80911;BME280;70359;51.420;7.032;2023-07-31T02:56:08;995.6982;;;18.12;67.77832
80911;BME280;70359;51.420;7.032;2023-07-31T02:58:32;995.7606;;;18.09;67.87793
80911;BME280;70359;51.420;7.032;2023-07-31T03:00:58;995.6994;;;18.14;67.35742
80911;BME280;70359;51.420;7.032;2023-07-31T03:03:23;995.6905;;;18.06;67.72461
80911;BME280;70359;51.420;7.032;2023-07-31T03:05:48;995.6301;;;18.08;67.6123
80911;BME280;70359;51.420;7.032;2023-07-31T03:08:13;995.6515;;;18.02;67.77637
80911;BME280;70359;51.420;7.032;2023-07-31T03:10:38;995.6383;;;18.08;67.70508
80911;BME280;70359;51.420;7.032;2023-07-31T03:13:03;995.5574;;;18.05;67.67676
80911;BME280;70359;51.420;7.032;2023-07-31T03:15:28;995.5137;;;18.06;67.83887
80911;BME280;70359;51.420;7.032;2023-07-31T03:17:53;995.5641;;;18.04;67.74316
80911;BME280;70359;51.420;7.032;2023-07-31T03:20:18;995.5229;;;18.04;68.00879
80911;BME280;70359;51.420;7.032;2023-07-31T03:22:43;995.4933;;;18.06;68.01172
80911;BME280;70359;51.420;7.032;2023-07-31T03:25:08;995.588;;;18.05;68.36719
80911;BME280;70359;51.420;7.032;2023-07-31T03:27:33;995.5148;;;18.06;67.9541
80911;BME280;70359;51.420;7.032;2023-07-31T03:29:59;995.5528;;;18.07;68.11621
80911;BME280;70359;51.420;7.032;2023-07-31T03:32:23;995.5352;;;18.07;68.03516
80911;BME280;70359;51.420;7.032;2023-07-31T03:34:48;995.5488;;;18.06;68.17188
80911;BME280;70359;51.420;7.032;2023-07-31T03:37:13;995.5927;;;18.09;68.22168
80911;BME280;70359;51.420;7.032;2023-07-31T03:39:38;995.5355;;;18.06;68.08008
80911;BME280;70359;51.420;7.032;2023-07-31T03:42:03;995.5798;;;18.09;68.29102
80911;BME280;70359;51.420;7.032;2023-07-31T03:44:28;995.5282;;;18.11;68.21484
80911;BME280;70359;51.420;7.032;2023-07-31T03:46:53;995.478;;;18.11;68.26074
80911;BME280;70359;51.420;7.032;2023-07-31T03:49:18;995.4442;;;18.09;68.25684
80911;BME280;70359;51.420;7.032;2023-07-31T03:51:43;995.4969;;;18.14;67.91992
80911;BME280;70359;51.420;7.032;2023-07-31T03:54:08;995.4791;;;18.07;68.23047
80911;BME280;70359;51.420;7.032;2023-07-31T03:56:33;995.492;;;18.16;67.96875
80911;BME280;70359;51.420;7.032;2023-07-31T03:58:58;995.4754;;;18.12;68.04395
80911;BME280;70359;51.420;7.032;2023-07-31T04:01:23;995.4941;;;18.18;68.04102
80911;BME280;70359;51.420;7.032;2023-07-31T04:03:48;995.4895;;;18.11;68.31836
80911;BME280;70359;51.420;7.032;2023-07-31T04:06:13;995.4874;;;18.14;68.04688
80911;BME280;70359;51.420;7.032;2023-07-31T04:08:38;995.4299;;;18.07;68.24219
80911;BME280;70359;51.420;7.032;2023-07-31T04:11:03;995.4213;;;18.13;68.16016
80911;BME280;70359;51.420;7.032;2023-07-31T04:13:28;995.3906;;;18.08;68.44043
80911;BME280;70359;51.420;7.032;2023-07-31T04:15:53;995.3569;;;18.13;68.17188
80911;BME280;70359;51.420;7.032;2023-07-31T04:18:18;995.3624;;;18.1;68.48926
80911;BME280;70359;51.420;7.032;2023-07-31T04:20:43;995.3787;;;18.14;68.38965
80911;BME280;70359;51.420;7.032;2023-07-31T04:23:08;995.3035;;;18.17;68.16406
80911;BME280;70359;51.420;7.032;2023-07-31T04:25:33;995.2463;;;18.19;68.19141
80911;BME280;70359;51.420;7.032;2023-07-31T04:27:58;995.2286;;;18.21;68.02344
80911;BME280;70359;51.420;7.032;2023-07-31T04:30:23;995.2559;;;18.25;68.15527
80911;BME280;70359;51.420;7.032;2023-07-31T04:32:48;995.2673;;;18.27;67.95117
80911;BME280;70359;51.420;7.032;2023-07-31T04:35:13;995.2211;;;18.31;67.79688
80911;BME280;70359;51.420;7.032;2023-07-31T04:37:38;995.2487;;;18.3;67.66797
80911;BME280;70359;51.420;7.032;2023-07-31T04:40:03;995.2009;;;18.3;68.03516
80911;BME280;70359;51.420;7.032;2023-07-31T04:42:28;995.2017;;;18.31;67.75098
80911;BME280;70359;51.420;7.032;2023-07-31T04:44:53;995.1483;;;18.31;67.80664
80911;BME280;70359;51.420;7.032;2023-07-31T04:47:18;995.1286;;;18.31;67.68164
80911;BME280;70359;51.420;7.032;2023-07-31T04:49:43;995.1339;;;18.27;68.06543
80911;BME280;70359;51.420;7.032;2023-07-31T04:52:08;995.13;;;18.27;67.87012
80911;BME280;70359;51.420;7.032;2023-07-31T04:54:33;995.0928;;;18.26;68.32813
80911;BME280;70359;51.420;7.032;2023-07-31T04:56:58;995.0947;;;18.31;68.25488
80911;BME280;70359;51.420;7.032;2023-07-31T04:59:23;995.027;;;18.28;68.27539
80911;BME280;70359;51.420;7.032;2023-07-31T05:01:48;995.0181;;;18.35;68.12402
80911;BME280;70359;51.420;7.032;2023-07-31T05:04:13;995.0325;;;18.28;68.24121
80911;BME280;70359;51.420;7.032;2023-07-31T05:06:38;995.0259;;;18.31;68.40625
80911;BME280;70359;51.420;7.032;2023-07-31T05:09:03;994.9672;;;18.28;68.52832
80911;BME280;70359;51.420;7.032;2023-07-31T05:11:28;994.9091;;;18.35;68.19336
80911;BME280;70359;51.420;7.032;2023-07-31T05:13:53;994.9113;;;18.27;68.31836
80911;BME280;70359;51.420;7.032;2023-07-31T05:16:18;994.8503;;;18.37;68.39063
80911;BME280;70359;51.420;7.032;2023-07-31T05:18:43;994.8209;;;18.32;68.63672
80911;BME280;70359;51.420;7.032;2023-07-31T05:21:08;994.8389;;;18.31;68.38281
80911;BME280;70359;51.420;7.032;2023-07-31T05:23:33;994.8197;;;18.24;68.65918
80911;BME280;70359;51.420;7.032;2023-07-31T05:26:01;994.7803;;;18.28;68.48047
80911;BME280;70359;51.420;7.032;2023-07-31T05:28:23;994.8293;;;18.31;68.73926
80911;BME280;70359;51.420;7.032;2023-07-31T05:30:48;994.7553;;;18.37;68.59766
80911;BME280;70359;51.420;7.032;2023-07-31T05:33:13;994.7079;;;18.39;68.60156
80911;BME280;70359;51.420;7.032;2023-07-31T05:35:38;994.7189;;;18.45;68.47266
80911;BME280;70359;51.420;7.032;2023-07-31T05:38:03;994.7307;;;18.48;68.06445
80911;BME280;70359;51.420;7.032;2023-07-31T05:40:28;994.7472;;;18.52;68.20801
80911;BME280;70359;51.420;7.032;2023-07-31T05:42:53;994.7328;;;18.54;67.99219
80911;BME280;70359;51.420;7.032;2023-07-31T05:45:18;994.658;;;18.54;68.26758
80911;BME280;70359;51.420;7.032;2023-07-31T05:47:43;994.6588;;;18.59;67.93164
80911;BME280;70359;51.420;7.032;2023-07-31T05:50:08;994.6054;;;18.55;68.23438
80911;BME280;70359;51.420;7.032;2023-07-31T05:52:33;994.5394;;;18.56;68.0752
80911;BME280;70359;51.420;7.032;2023-07-31T05:54:58;994.5455;;;18.56;68.19141
80911;BME280;70359;51.420;7.032;2023-07-31T05:57:23;994.5254;;;18.56;67.9834
80911;BME280;70359;51.420;7.032;2023-07-31T05:59:48;994.4473;;;18.53;68.39258
80911;BME280;70359;51.420;7.032;2023-07-31T06:02:13;994.4694;;;18.57;68.1123
80911;BME280;70359;51.420;7.032;2023-07-31T06:04:38;994.4383;;;18.56;68.375
80911;BME280;70359;51.420;7.032;2023-07-31T06:07:03;994.3597;;;18.58;68.03223
80911;BME280;70359;51.420;7.032;2023-07-31T06:09:28;994.3083;;;18.53;68.44922
80911;BME280;70359;51.420;7.032;2023-07-31T06:11:53;994.2957;;;18.55;68.32617
80911;BME280;70359;51.420;7.032;2023-07-31T06:14:18;994.2978;;;18.52;68.65625
80911;BME280;70359;51.420;7.032;2023-07-31T06:16:43;994.2777;;;18.55;68.14258
80911;BME280;70359;51.420;7.032;2023-07-31T06:19:08;994.2759;;;18.53;68.30078
80911;BME280;70359;51.420;7.032;2023-07-31T06:21:33;994.259;;;18.62;68.07422
80911;BME280;70359;51.420;7.032;2023-07-31T06:23:58;994.2846;;;18.57;68.26172
80911;BME280;70359;51.420;7.032;2023-07-31T06:26:23;994.2831;;;18.63;68.18945
80911;BME280;70359;51.420;7.032;2023-07-31T06:28:48;994.2952;;;18.57;68.48047
80911;BME280;70359;51.420;7.032;2023-07-31T06:31:13;994.2729;;;18.65;68.12305
80911;BME280;70359;51.420;7.032;2023-07-31T06:33:38;994.247;;;18.58;68.34375
80911;BME280;70359;51.420;7.032;2023-07-31T06:36:03;994.2908;;;18.57;68.19336
80911;BME280;70359;51.420;7.032;2023-07-31T06:38:28;994.2569;;;18.56;68.92676
80911;BME280;70359;51.420;7.032;2023-07-31T06:40:53;994.3102;;;18.57;68.90527
80911;BME280;70359;51.420;7.032;2023-07-31T06:43:18;994.2654;;;18.55;68.83203
80911;BME280;70359;51.420;7.032;2023-07-31T06:45:43;994.2658;;;18.59;68.5293
80911;BME280;70359;51.420;7.032;2023-07-31T06:48:08;994.2464;;;18.65;68.27246
80911;BME280;70359;51.420;7.032;2023-07-31T06:50:33;994.2845;;;18.63;68.33887
80911;BME280;70359;51.420;7.032;2023-07-31T06:52:58;994.2706;;;18.64;68.55859
80911;BME280;70359;51.420;7.032;2023-07-31T06:55:23;994.3178;;;18.61;68.69238
80911;BME280;70359;51.420;7.032;2023-07-31T06:57:48;994.317;;;18.63;68.57031
80911;BME280;70359;51.420;7.032;2023-07-31T07:00:14;994.3242;;;18.66;68.52832
80911;BME280;70359;51.420;7.032;2023-07-31T07:02:38;994.3074;;;18.73;68.18164
80911;BME280;70359;51.420;7.032;2023-07-31T07:05:03;994.3312;;;18.68;68.3457
80911;BME280;70359;51.420;7.032;2023-07-31T07:07:28;994.3497;;;18.71;68.28223
80911;BME280;70359;51.420;7.032;2023-07-31T07:09:53;994.3631;;;18.68;68.47266
80911;BME280;70359;51.420;7.032;2023-07-31T07:12:18;994.3297;;;18.69;68.17578
80911;BME280;70359;51.420;7.032;2023-07-31T07:14:43;994.311;;;18.62;68.5918
80911;BME280;70359;51.420;7.032;2023-07-31T07:17:08;994.3156;;;18.61;68.80762
80911;BME280;70359;51.420;7.032;2023-07-31T07:19:33;994.2206;;;18.53;69.07129
80911;BME280;70359;51.420;7.032;2023-07-31T07:21:58;994.2236;;;18.58;69.0332
80911;BME280;70359;51.420;7.032;2023-07-31T07:24:23;994.2355;;;18.51;69.4707
80911;BME280;70359;51.420;7.032;2023-07-31T07:26:48;994.236;;;18.57;69.18164
80911;BME280;70359;51.420;7.032;2023-07-31T07:29:13;994.229;;;18.53;69.37012
80911;BME280;70359;51.420;7.032;2023-07-31T07:31:38;994.2104;;;18.62;68.86816
80911;BME280;70359;51.420;7.032;2023-07-31T07:34:03;994.1342;;;18.52;69.16113
80911;BME280;70359;51.420;7.032;2023-07-31T07:36:28;994.1573;;;18.48;69.43066
80911;BME280;70359;51.420;7.032;2023-07-31T07:38:53;994.0962;;;18.43;69.50488
80911;BME280;70359;51.420;7.032;2023-07-31T07:41:18;994.0974;;;18.45;69.67871
80911;BME280;70359;51.420;7.032;2023-07-31T07:43:43;994.1555;;;18.42;69.88086
80911;BME280;70359;51.420;7.032;2023-07-31T07:46:08;994.0522;;;18.46;69.68164
80911;BME280;70359;51.420;7.032;2023-07-31T07:48:33;994.1153;;;18.37;70.10254
80911;BME280;70359;51.420;7.032;2023-07-31T07:50:58;994.0889;;;18.37;70.16016
80911;BME280;70359;51.420;7.032;2023-07-31T07:53:23;994.0513;;;18.42;70.14551
80911;BME280;70359;51.420;7.032;2023-07-31T07:55:48;994.0609;;;18.47;69.90137
80911;BME280;70359;51.420;7.032;2023-07-31T07:58:13;994.067;;;18.41;70.12109
80911;BME280;70359;51.420;7.032;2023-07-31T08:00:38;994.0069;;;18.44;69.85156
80911;BME280;70359;51.420;7.032;2023-07-31T08:03:03;994.0147;;;18.47;69.76367
80911;BME280;70359;51.420;7.032;2023-07-31T08:05:28;994.0361;;;18.49;69.88086
80911;BME280;70359;51.420;7.032;2023-07-31T08:07:53;993.9796;;;18.47;69.78613
80911;BME280;70359;51.420;7.032;2023-07-31T08:10:18;994.0103;;;18.49;69.88086
80911;BME280;70359;51.420;7.032;2023-07-31T08:12:43;994.015;;;18.54;69.52051
80911;BME280;70359;51.420;7.032;2023-07-31T08:15:09;993.9825;;;18.49;69.65137
80911;BME280;70359;51.420;7.032;2023-07-31T08:17:33;993.9116;;;18.57;69.25
80911;BME280;70359;51.420;7.032;2023-07-31T08:19:58;993.9263;;;18.48;69.32715
80911;BME280;70359;51.420;7.032;2023-07-31T08:22:23;993.8572;;;18.5;69.44434
80911;BME280;70359;51.420;7.032;2023-07-31T08:24:48;993.8452;;;18.49;69.61719
80911;BME280;70359;51.420;7.032;2023-07-31T08:27:13;993.8314;;;18.45;69.35742
80911;BME280;70359;51.420;7.032;2023-07-31T08:29:38;993.7985;;;18.35;69.73242
80911;BME280;70359;51.420;7.032;2023-07-31T08:32:04;993.8183;;;18.41;69.59277
80911;BME280;70359;51.420;7.032;2023-07-31T08:34:28;993.8233;;;18.34;69.82324
80911;BME280;70359;51.420;7.032;2023-07-31T08:36:53;993.7792;;;18.37;69.88477
80911;BME280;70359;51.420;7.032;2023-07-31T08:39:18;993.774;;;18.35;70.20313
80911;BME280;70359;51.420;7.032;2023-07-31T08:41:43;993.8175;;;18.41;69.9834
80911;BME280;70359;51.420;7.032;2023-07-31T08:44:08;993.7941;;;18.32;70.25488
80911;BME280;70359;51.420;7.032;2023-07-31T08:46:33;993.7292;;;18.33;69.8457
80911;BME280;70359;51.420;7.032;2023-07-31T08:48:58;993.7062;;;18.26;70.17871
80911;BME280;70359;51.420;7.032;2023-07-31T08:51:23;993.6766;;;18.31;70.18652
80911;BME280;70359;51.420;7.032;2023-07-31T08:53:48;993.7417;;;18.27;70.44336
80911;BME280;70359;51.420;7.032;2023-07-31T08:56:13;993.7115;;;18.36;69.91797
80911;BME280;70359;51.420;7.032;2023-07-31T08:58:38;993.7465;;;18.3;70.24219
80911;BME280;70359;51.420;7.032;2023-07-31T09:01:04;993.8179;;;18.33;69.8916
80911;BME280;70359;51.420;7.032;2023-07-31T09:03:28;993.8516;;;18.24;70.46191
80911;BME280;70359;51.420;7.032;2023-07-31T09:05:53;993.8304;;;18.27;70.3623
80911;BME280;70359;51.420;7.032;2023-07-31T09:08:19;993.9138;;;18.23;70.79297
80911;BME280;70359;51.420;7.032;2023-07-31T09:10:44;993.8956;;;18.24;70.89844
80911;BME280;70359;51.420;7.032;2023-07-31T09:13:08;993.8734;;;18.3;70.36719
80911;BME280;70359;51.420;7.032;2023-07-31T09:15:33;993.8348;;;18.27;70.75293
80911;BME280;70359;51.420;7.032;2023-07-31T09:18:02;993.8328;;;18.31;70.56445
80911;BME280;70359;51.420;7.032;2023-07-31T09:22:48;993.7481;;;18.33;70.63672
80911;BME280;70359;51.420;7.032;2023-07-31T09:25:20;993.7687;;;18.31;70.72461
80911;BME280;70359;51.420;7.032;2023-07-31T09:27:49;993.7545;;;18.3;70.72266
80911;BME280;70359;51.420;7.032;2023-07-31T09:30:04;993.7252;;;18.26;70.99219
80911;BME280;70359;51.420;7.032;2023-07-31T09:32:28;993.7294;;;18.3;70.89453
80911;BME280;70359;51.420;7.032;2023-07-31T09:34:53;993.7084;;;18.3;71.02148
80911;BME280;70359;51.420;7.032;2023-07-31T09:37:18;993.6875;;;18.32;70.91113
80911;BME280;70359;51.420;7.032;2023-07-31T09:39:52;993.6677;;;18.33;71.02734
80911;BME280;70359;51.420;7.032;2023-07-31T09:42:09;993.6492;;;18.38;70.35645
80911;BME280;70359;51.420;7.032;2023-07-31T09:44:42;993.5845;;;18.23;71
80911;BME280;70359;51.420;7.032;2023-07-31T09:46:58;993.5027;;;18.31;70.98828
80911;BME280;70359;51.420;7.032;2023-07-31T09:49:23;993.5901;;;18.3;71.32129
80911;BME280;70359;51.420;7.032;2023-07-31T09:51:48;993.5846;;;18.37;70.87207
80911;BME280;70359;51.420;7.032;2023-07-31T09:54:14;993.5364;;;18.34;71.13184
80911;BME280;70359;51.420;7.032;2023-07-31T09:56:38;993.5258;;;18.4;70.90039
80911;BME280;70359;51.420;7.032;2023-07-31T09:59:04;993.5452;;;18.32;71.16309
80911;BME280;70359;51.420;7.032;2023-07-31T10:01:29;993.5475;;;18.4;70.77441
80911;BME280;70359;51.420;7.032;2023-07-31T10:03:53;993.5009;;;18.37;71.13574
80911;BME280;70359;51.420;7.032;2023-07-31T10:06:18;993.4645;;;18.39;71.11719
80911;BME280;70359;51.420;7.032;2023-07-31T10:08:43;993.4853;;;18.3;71.44727
80911;BME280;70359;51.420;7.032;2023-07-31T10:11:08;993.4928;;;18.37;71.42285
80911;BME280;70359;51.420;7.032;2023-07-31T10:13:34;993.5438;;;18.36;71.46875
80911;BME280;70359;51.420;7.032;2023-07-31T10:16:00;993.4728;;;18.41;71.19922
80911;BME280;70359;51.420;7.032;2023-07-31T10:18:24;993.4529;;;18.37;71.54883
80911;BME280;70359;51.420;7.032;2023-07-31T10:20:49;993.4289;;;18.37;71.33105
80911;BME280;70359;51.420;7.032;2023-07-31T10:23:14;993.5153;;;18.32;71.85059
80911;BME280;70359;51.420;7.032;2023-07-31T10:25:39;993.4556;;;18.37;71.70996
80911;BME280;70359;51.420;7.032;2023-07-31T10:28:04;993.455;;;18.42;71.51172
80911;BME280;70359;51.420;7.032;2023-07-31T10:30:29;993.3923;;;18.43;71.43359
80911;BME280;70359;51.420;7.032;2023-07-31T10:32:54;993.4535;;;18.44;71.34375
80911;BME280;70359;51.420;7.032;2023-07-31T10:35:19;993.3619;;;18.42;71.43164
80911;BME280;70359;51.420;7.032;2023-07-31T10:37:44;993.4437;;;18.47;71.10742
80911;BME280;70359;51.420;7.032;2023-07-31T10:40:09;993.4576;;;18.43;71.33008
80911;BME280;70359;51.420;7.032;2023-07-31T10:42:35;993.4771;;;18.5;71.16797
80911;BME280;70359;51.420;7.032;2023-07-31T10:45:00;993.4511;;;18.49;71.23633
80911;BME280;70359;51.420;7.032;2023-07-31T10:47:24;993.4572;;;18.52;70.89648
80911;BME280;70359;51.420;7.032;2023-07-31T10:49:49;993.4712;;;18.45;71.24121
80911;BME280;70359;51.420;7.032;2023-07-31T10:52:15;993.4803;;;18.48;71.1875
80911;BME280;70359;51.420;7.032;2023-07-31T10:54:39;993.4744;;;18.47;71.34668
80911;BME280;70359;51.420;7.032;2023-07-31T10:57:04;993.4333;;;18.51;71.50293
80911;BME280;70359;51.420;7.032;2023-07-31T10:59:30;993.4231;;;18.52;71.78027
80911;BME280;70359;51.420;7.032;2023-07-31T11:01:54;993.3873;;;18.58;71.50195
80911;BME280;70359;51.420;7.032;2023-07-31T11:04:19;993.4034;;;18.58;71.30664
80911;BME280;70359;51.420;7.032;2023-07-31T11:06:44;993.3491;;;18.6;71.26563
80911;BME280;70359;51.420;7.032;2023-07-31T11:09:09;993.3894;;;18.56;71.58105
80911;BME280;70359;51.420;7.032;2023-07-31T11:11:34;993.3575;;;18.64;71.55957
80911;BME280;70359;51.420;7.032;2023-07-31T11:13:59;993.3783;;;18.61;71.8291
80911;BME280;70359;51.420;7.032;2023-07-31T11:16:24;993.342;;;18.65;71.75488
80911;BME280;70359;51.420;7.032;2023-07-31T11:18:49;993.3463;;;18.62;72.02734
80911;BME280;70359;51.420;7.032;2023-07-31T11:21:16;993.3285;;;18.65;71.65137
80911;BME280;70359;51.420;7.032;2023-07-31T11:23:40;993.3458;;;18.64;71.78906
80911;BME280;70359;51.420;7.032;2023-07-31T11:26:04;993.367;;;18.73;71.46875
80911;BME280;70359;51.420;7.032;2023-07-31T11:28:31;993.3205;;;18.74;71.73633
80911;BME280;70359;51.420;7.032;2023-07-31T11:30:55;993.3707;;;18.82;71.61133
80911;BME280;70359;51.420;7.032;2023-07-31T11:33:19;993.3166;;;18.79;71.70898
80911;BME280;70359;51.420;7.032;2023-07-31T11:35:47;993.2634;;;18.82;71.4043
80911;BME280;70359;51.420;7.032;2023-07-31T11:38:09;993.2943;;;18.85;71.31543
80911;BME280;70359;51.420;7.032;2023-07-31T11:40:40;993.1926;;;18.84;71.09668
80911;BME280;70359;51.420;7.032;2023-07-31T11:43:04;993.183;;;18.88;70.99902
80911;BME280;70359;51.420;7.032;2023-07-31T11:45:24;993.1568;;;18.93;71.27051
80911;BME280;70359;51.420;7.032;2023-07-31T11:47:49;993.1761;;;18.88;71.26367
80911;BME280;70359;51.420;7.032;2023-07-31T11:50:14;993.19;;;18.91;71.40625
80911;BME280;70359;51.420;7.032;2023-07-31T11:52:40;993.2281;;;18.99;70.94727
80911;BME280;70359;51.420;7.032;2023-07-31T11:55:04;993.2164;;;18.96;71.36816
80911;BME280;70359;51.420;7.032;2023-07-31T11:57:29;993.1089;;;19.02;71.07813
80911;BME280;70359;51.420;7.032;2023-07-31T11:59:54;993.101;;;18.98;71.41699
80911;BME280;70359;51.420;7.032;2023-07-31T12:02:19;993.0773;;;19.06;71.38379
80911;BME280;70359;51.420;7.032;2023-07-31T12:04:44;993.1328;;;19.05;71.52051
80911;BME280;70359;51.420;7.032;2023-07-31T12:07:09;993.1699;;;19.13;71.16699
80911;BME280;70359;51.420;7.032;2023-07-31T12:09:34;993.1842;;;19.11;70.89746
80911;BME280;70359;51.420;7.032;2023-07-31T12:11:59;993.1697;;;19.17;70.63086
80911;BME280;70359;51.420;7.032;2023-07-31T12:14:25;993.1539;;;19.08;70.88086
80911;BME280;70359;51.420;7.032;2023-07-31T12:16:49;993.1442;;;19.13;70.70605
80911;BME280;70359;51.420;7.032;2023-07-31T12:19:14;993.137;;;19.11;70.89844
80911;BME280;70359;51.420;7.032;2023-07-31T12:21:39;993.1642;;;19.13;70.79785
80911;BME280;70359;51.420;7.032;2023-07-31T12:24:04;993.1406;;;19.08;71.12402